Cam Ranh Airport


Codes: VVCR/CXR
Name: Cam Ranh Airport
City: Nha Trang
Country: Vietnam
Elevation: 40 ft.
Wikipedia:

Photos at Cam Ranh Airport


   Photos courtesy of SpottingLog. You can add your own sightings and photos by signing up for a free trial today.



No photos found.

Weather at Cam Ranh Airport


Time (UTC)DescriptionTempratureWindCloud coverageVisibilityPressureHumidity
25-Jun-2024 15:00Light Rain28°C4 mph, NW86%10000m1007hPa81%
25-Jun-2024 18:00Light Rain27°C7 mph, NW90%7770m1007hPa83%
25-Jun-2024 21:00Light Rain26°C7 mph, NW100%10000m1006hPa85%
26-Jun-2024 00:00Light Rain27°C4 mph, NW100%10000m1008hPa79%
26-Jun-2024 03:00Light Rain30°C7 mph, NE77%10000m1008hPa67%
26-Jun-2024 06:00Light Rain30°C9 mph, E80%10000m1007hPa74%
26-Jun-2024 09:00Light Rain29°C7 mph, NE100%10000m1006hPa73%
26-Jun-2024 12:00Light Rain28°C4 mph, NE100%10000m1008hPa82%
26-Jun-2024 15:00Light Rain28°C7 mph, NW99%10000m1010hPa81%
26-Jun-2024 18:00Light Rain27°C4 mph, W100%10000m1009hPa79%
26-Jun-2024 21:00Overcast Clouds27°C2 mph, W100%10000m1008hPa77%
27-Jun-2024 00:00Overcast Clouds28°C2 mph, NW100%10000m1010hPa74%
27-Jun-2024 03:00Overcast Clouds30°C7 mph, E100%10000m1010hPa66%
27-Jun-2024 06:00Light Rain30°C7 mph, SE100%10000m1008hPa69%
27-Jun-2024 09:00Light Rain30°C7 mph, SE100%10000m1007hPa72%
27-Jun-2024 12:00Overcast Clouds28°C7 mph, S100%10000m1009hPa83%
27-Jun-2024 15:00Overcast Clouds27°C4 mph, SW99%10000m1011hPa84%
27-Jun-2024 18:00Overcast Clouds27°C4 mph, SW86%10000m1009hPa86%
27-Jun-2024 21:00Scattered Clouds26°C2 mph, SW48%10000m1008hPa86%
28-Jun-2024 00:00Scattered Clouds28°C2 mph, SW37%10000m1010hPa79%
28-Jun-2024 03:00Few Clouds31°C7 mph, SE22%10000m1010hPa67%
28-Jun-2024 06:00Light Rain31°C16 mph, SE40%10000m1007hPa69%
28-Jun-2024 09:00Light Rain31°C16 mph, S89%10000m1006hPa71%
28-Jun-2024 12:00Light Rain28°C11 mph, S86%8575m1008hPa85%
28-Jun-2024 15:00Light Rain27°C9 mph, SW72%10000m1009hPa87%
28-Jun-2024 18:00Broken Clouds27°C4 mph, SW76%10000m1008hPa87%
28-Jun-2024 21:00Overcast Clouds26°C4 mph, SW100%10000m1007hPa87%
29-Jun-2024 00:00Overcast Clouds28°C4 mph, SW100%10000m1009hPa81%
29-Jun-2024 03:00Overcast Clouds31°C9 mph, SE100%10000m1009hPa67%
29-Jun-2024 06:00Light Rain32°C13 mph, SE99%10000m1006hPa67%
29-Jun-2024 09:00Light Rain31°C13 mph, S96%10000m1005hPa68%
29-Jun-2024 12:00Moderate Rain28°C11 mph, S92%10000m1007hPa85%
29-Jun-2024 15:00Light Rain27°C9 mph, SW93%10000m1009hPa87%
29-Jun-2024 18:00Overcast Clouds27°C7 mph, SW96%10000m1007hPa87%
29-Jun-2024 21:00Overcast Clouds26°C4 mph, SW100%10000m1007hPa85%
30-Jun-2024 00:00Overcast Clouds28°C7 mph, SW100%10000m1008hPa79%
30-Jun-2024 03:00Overcast Clouds31°C4 mph, SE88%10000m1008hPa64%
30-Jun-2024 06:00Light Rain32°C9 mph, SE62%10000m1005hPa65%
30-Jun-2024 09:00Light Rain32°C13 mph, S76%10000m1004hPa67%
30-Jun-2024 12:00Light Rain29°C16 mph, SW86%10000m1006hPa80%